Time;durP1;ratioP1;P1;durP2;ratioP2;P2;SDS_P1;SDS_P2;PMS_P1;PMS_P2;Temp;Humidity;BMP_temperature;BMP_pressure;BME280_temperature;BME280_humidity;BME280_pressure;Samples;Min_cycle;Max_cycle;Signal;HPM_P1;HPM_P2
2023/05/05 00:01:28;;;;;;;3.65;1.60;;;;;;;4.87;100.00;99012.97;5164515;27;20055;-57
2023/05/05 00:03:54;;;;;;;1.48;1.33;;;;;;;4.86;100.00;99028.44;5162657;27;20107;-56
2023/05/05 00:06:21;;;;;;;2.80;1.73;;;;;;;4.94;100.00;99022.16;5160095;27;20407;-57
2023/05/05 00:08:47;;;;;;;1.75;1.30;;;;;;;4.85;100.00;99018.72;5159575;27;20073;-58
2023/05/05 00:11:13;;;;;;;2.08;1.20;;;;;;;4.81;100.00;99023.22;5159815;27;20141;-56
2023/05/05 00:13:39;;;;;;;1.30;1.20;;;;;;;4.59;100.00;99070.47;5159590;27;20043;-63
2023/05/05 00:16:05;;;;;;;2.45;1.40;;;;;;;4.56;100.00;99076.53;5159401;27;20051;-64
2023/05/05 00:18:32;;;;;;;3.75;1.40;;;;;;;4.64;100.00;99062.13;5159744;27;20129;-59
2023/05/05 00:20:58;;;;;;;2.97;1.70;;;;;;;4.55;100.00;99055.16;5159537;27;20047;-58
2023/05/05 00:23:25;;;;;;;4.25;1.48;;;;;;;4.42;100.00;99094.97;5159803;27;20059;-57
2023/05/05 00:25:51;;;;;;;3.08;1.60;;;;;;;4.60;100.00;99096.50;5159296;27;20060;-55
2023/05/05 00:28:17;;;;;;;4.72;1.35;;;;;;;4.28;100.00;99087.03;5159778;27;20383;-58
2023/05/05 00:30:42;;;;;;;1.90;1.50;;;;;;;4.45;100.00;99126.91;5159253;27;20377;-59
2023/05/05 00:33:08;;;;;;;2.42;1.30;;;;;;;4.42;100.00;99127.53;5159688;27;20082;-61
2023/05/05 00:35:34;;;;;;;1.48;1.38;;;;;;;4.47;100.00;99147.19;5158990;27;20442;-63
2023/05/05 00:38:00;;;;;;;2.25;1.60;;;;;;;4.36;100.00;99155.97;5159392;27;20058;-62
2023/05/05 00:40:27;;;;;;;2.53;1.60;;;;;;;4.32;100.00;99177.53;5159385;27;20392;-59
2023/05/05 00:42:53;;;;;;;2.75;1.63;;;;;;;4.40;100.00;99159.66;5159446;27;20380;-59
2023/05/05 00:45:19;;;;;;;1.52;1.40;;;;;;;4.46;100.00;99167.31;5159296;27;20149;-58
2023/05/05 00:47:47;;;;;;;1.83;1.55;;;;;;;4.43;100.00;99161.72;5159199;27;20050;-64
2023/05/05 00:50:22;;;;;;;3.90;1.60;;;;;;;4.43;100.00;99145.41;5159148;27;20055;-61
2023/05/05 00:52:48;;;;;;;2.33;2.00;;;;;;;4.22;100.00;99143.41;5159022;27;20107;-62
2023/05/05 00:55:14;;;;;;;1.90;1.42;;;;;;;4.22;100.00;99184.09;5159204;27;20137;-63
2023/05/05 00:57:41;;;;;;;3.75;1.83;;;;;;;4.24;100.00;99206.31;5158828;27;20047;-59
2023/05/05 01:00:08;;;;;;;3.28;1.70;;;;;;;4.33;100.00;99211.72;5159300;27;20141;-57
2023/05/05 01:02:35;;;;;;;4.93;1.70;;;;;;;4.19;100.00;99205.66;5158619;27;20434;-58
2023/05/05 01:05:01;;;;;;;5.55;2.22;;;;;;;4.11;100.00;99228.19;5158569;27;20082;-58
2023/05/05 01:07:38;;;;;;;2.28;1.92;;;;;;;4.07;100.00;99271.44;5158806;27;20138;-54
2023/05/05 01:10:11;;;;;;;4.53;1.75;;;;;;;4.30;100.00;99295.69;5158865;27;20055;-63
2023/05/05 01:12:45;;;;;;;3.15;1.90;;;;;;;4.24;100.00;99292.34;5158787;27;20479;-55
2023/05/05 01:15:17;;;;;;;2.15;1.52;;;;;;;4.28;100.00;99287.06;5158527;27;20137;-56
2023/05/05 01:17:50;;;;;;;5.88;1.50;;;;;;;4.15;100.00;99319.47;5158847;27;20050;-64
2023/05/05 01:20:22;;;;;;;6.28;1.85;;;;;;;3.95;100.00;99352.63;5158560;27;20046;-58
2023/05/05 01:22:56;;;;;;;2.10;1.63;;;;;;;4.15;100.00;99370.22;5158930;27;20301;-63
2023/05/05 01:25:36;;;;;;;2.88;1.42;;;;;;;4.22;100.00;99368.63;5158610;27;20061;-60
2023/05/05 01:28:18;;;;;;;1.52;1.27;;;;;;;4.23;100.00;99347.72;5158555;27;20043;-61
2023/05/05 01:31:00;;;;;;;4.20;1.83;;;;;;;4.30;100.00;99295.69;5158718;27;20052;-64
2023/05/05 01:33:34;;;;;;;3.40;1.58;;;;;;;4.25;100.00;99283.88;5158347;27;20057;-54
2023/05/05 01:36:06;;;;;;;2.47;1.42;;;;;;;4.29;100.00;99294.09;5158627;27;20384;-59
2023/05/05 01:38:39;;;;;;;2.97;1.67;;;;;;;4.23;100.00;99305.13;5158128;27;20408;-56
2023/05/05 01:41:12;;;;;;;2.17;1.23;;;;;;;4.31;100.00;99308.94;5158388;27;20400;-63
2023/05/05 01:43:40;;;;;;;2.22;1.25;;;;;;;4.14;100.00;99345.00;5158437;27;20051;-57
2023/05/05 01:46:07;;;;;;;2.03;1.60;;;;;;;4.25;100.00;99372.63;5158325;27;20053;-55
2023/05/05 01:48:35;;;;;;;1.63;1.45;;;;;;;4.45;100.00;99382.06;5158507;27;20074;-57
2023/05/05 01:51:04;;;;;;;2.13;1.67;;;;;;;4.40;100.00;99304.31;5158140;27;20378;-62
2023/05/05 01:53:31;;;;;;;3.72;2.15;;;;;;;4.66;100.00;99290.69;5158374;27;20096;-54
2023/05/05 01:55:58;;;;;;;1.60;1.45;;;;;;;4.52;100.00;99265.66;5158070;27;20081;-61
2023/05/05 01:58:26;;;;;;;2.35;1.60;;;;;;;4.58;100.00;99277.94;5158397;27;20051;-62
2023/05/05 02:00:55;;;;;;;4.78;1.45;;;;;;;4.41;100.00;99305.91;5157871;27;20141;-61
2023/05/05 02:03:22;;;;;;;6.88;2.10;;;;;;;4.37;100.00;99307.69;5158294;27;20511;-62
2023/05/05 02:05:51;;;;;;;3.67;1.70;;;;;;;4.44;100.00;99313.41;5157924;27;20368;-61
2023/05/05 02:08:18;;;;;;;3.10;1.48;;;;;;;4.54;100.00;99330.50;5157781;27;20080;-59
2023/05/05 02:10:46;;;;;;;3.70;1.75;;;;;;;4.61;100.00;99331.59;5157870;27;20049;-63
2023/05/05 02:13:14;;;;;;;4.00;1.85;;;;;;;4.58;100.00;99328.75;5157934;27;20099;-61
2023/05/05 02:15:41;;;;;;;3.13;1.52;;;;;;;4.53;100.00;99351.41;5157888;27;20354;-62
2023/05/05 02:18:08;;;;;;;2.28;1.70;;;;;;;4.48;100.00;99386.88;5157867;27;20134;-61
2023/05/05 02:20:36;;;;;;;3.85;1.70;;;;;;;4.58;100.00;99391.97;5160743;27;20469;-58
2023/05/05 02:23:04;;;;;;;2.95;1.83;;;;;;;4.42;100.00;99371.84;5161537;27;20375;-60
2023/05/05 02:25:37;;;;;;;2.15;1.80;;;;;;;4.49;100.00;99367.53;5161638;27;20054;-57
2023/05/05 02:28:06;;;;;;;3.22;1.52;;;;;;;4.51;100.00;99386.22;5161191;27;20054;-60
2023/05/05 02:30:36;;;;;;;3.17;1.42;;;;;;;4.39;100.00;99394.19;5161479;27;20161;-56
2023/05/05 02:33:06;;;;;;;6.20;1.80;;;;;;;4.33;100.00;99411.75;5161491;27;20050;-55
2023/05/05 02:35:35;;;;;;;4.25;1.63;;;;;;;4.40;100.00;99429.19;5161251;27;20060;-63
2023/05/05 02:38:05;;;;;;;3.92;2.05;;;;;;;4.28;100.00;99420.06;5161434;27;20050;-57
2023/05/05 02:40:33;;;;;;;3.50;1.60;;;;;;;4.24;100.00;99468.75;5161157;27;20057;-59
2023/05/05 02:43:05;;;;;;;3.92;1.60;;;;;;;4.21;100.00;99529.88;5161479;27;20425;-59
2023/05/05 02:45:32;;;;;;;3.03;1.50;;;;;;;4.12;100.00;99531.75;5160919;27;20114;-54
2023/05/05 02:48:02;;;;;;;1.95;1.65;;;;;;;4.17;100.00;99523.47;5161507;27;20055;-61
2023/05/05 02:50:29;;;;;;;3.97;1.45;;;;;;;4.06;100.00;99549.25;5160951;27;20054;-54
2023/05/05 02:52:55;;;;;;;2.78;1.75;;;;;;;4.63;100.00;99516.75;5161365;27;20312;-62
2023/05/05 02:55:22;;;;;;;1.63;1.40;;;;;;;4.79;100.00;99407.63;5160830;27;20376;-56
2023/05/05 02:57:53;;;;;;;1.98;1.42;;;;;;;4.71;100.00;99339.41;5160688;27;20061;-56
2023/05/05 03:00:25;;;;;;;2.55;1.50;;;;;;;4.78;100.00;99313.69;5161084;27;20307;-62
2023/05/05 03:03:01;;;;;;;1.63;1.23;;;;;;;4.95;100.00;99260.09;5160834;27;20115;-60
2023/05/05 03:05:34;;;;;;;3.75;1.30;;;;;;;5.17;100.00;99190.34;5160975;27;20188;-63
2023/05/05 03:08:05;;;;;;;1.73;1.40;;;;;;;5.01;100.00;99181.94;5160590;27;20160;-63
2023/05/05 03:10:39;;;;;;;1.45;1.35;;;;;;;5.23;100.00;99180.06;5161035;27;20042;-62
2023/05/05 03:13:07;;;;;;;1.10;1.10;;;;;;;5.22;100.00;99141.22;5160570;27;20051;-64
2023/05/05 03:15:39;;;;;;;1.20;1.10;;;;;;;5.13;100.00;99105.97;5160840;27;20050;-55
2023/05/05 03:18:07;;;;;;;4.50;1.27;;;;;;;5.12;100.00;99119.84;5160733;27;20057;-64
2023/05/05 03:20:34;;;;;;;2.90;1.65;;;;;;;5.47;100.00;99108.75;5160633;27;20050;-60
2023/05/05 03:23:01;;;;;;;6.28;1.67;;;;;;;5.46;100.00;99056.28;5161131;27;20073;-63
2023/05/05 03:25:41;;;;;;;1.60;1.00;;;;;;;5.61;100.00;99039.34;5163001;27;20335;-59
2023/05/05 03:28:07;;;;;;;2.63;1.20;;;;;;;5.86;100.00;99004.06;5162517;27;20137;-57
2023/05/05 03:30:33;;;;;;;1.30;1.20;;;;;;;5.94;100.00;98969.75;5159409;27;20438;-59
2023/05/05 03:32:59;;;;;;;3.45;1.05;;;;;;;6.01;100.00;98959.09;5160648;27;20058;-63
2023/05/05 03:35:25;;;;;;;1.20;1.10;;;;;;;5.94;100.00;98967.84;5160321;27;20063;-64
2023/05/05 03:37:51;;;;;;;3.25;1.30;;;;;;;5.86;100.00;98965.97;5160617;27;20138;-62
2023/05/05 03:40:17;;;;;;;1.67;1.15;;;;;;;5.77;100.00;98974.25;5160112;27;20421;-59
2023/05/05 03:42:43;;;;;;;1.25;1.05;;;;;;;5.69;100.00;99017.84;5160299;27;20054;-58
2023/05/05 03:45:09;;;;;;;1.30;1.20;;;;;;;5.90;100.00;99016.66;5160239;27;20046;-63
2023/05/05 03:47:35;;;;;;;3.90;1.40;;;;;;;6.10;100.00;99012.31;5159967;27;20061;-55
2023/05/05 03:50:01;;;;;;;2.47;1.40;;;;;;;6.19;100.00;99025.78;5160213;27;20046;-57
2023/05/05 03:52:27;;;;;;;4.47;1.30;;;;;;;6.19;100.00;99038.63;5159875;27;20442;-61
2023/05/05 03:54:53;;;;;;;2.80;1.48;;;;;;;6.02;100.00;99028.72;5160300;27;20075;-61
2023/05/05 03:57:19;;;;;;;1.60;1.23;;;;;;;6.04;100.00;99059.13;5159792;27;20190;-61
2023/05/05 03:59:45;;;;;;;1.73;1.20;;;;;;;5.82;100.00;99066.50;5160206;27;20390;-63
2023/05/05 04:02:11;;;;;;;3.47;1.40;;;;;;;5.70;100.00;99136.38;5159773;27;20395;-64
2023/05/05 04:04:37;;;;;;;2.15;1.48;;;;;;;5.89;100.00;99191.91;5160122;27;20061;-64
2023/05/05 04:07:03;;;;;;;1.40;1.30;;;;;;;6.04;100.00;99247.69;5159566;27;20057;-64
2023/05/05 04:09:29;;;;;;;1.60;1.50;;;;;;;5.73;100.00;99288.03;5160172;27;20425;-59
2023/05/05 04:11:55;;;;;;;2.05;1.45;;;;;;;5.84;100.00;99428.81;5159860;27;20125;-59
2023/05/05 04:14:21;;;;;;;1.85;1.45;;;;;;;5.92;100.00;99472.66;5159701;27;20139;-58
2023/05/05 04:16:47;;;;;;;1.50;1.40;;;;;;;6.00;100.00;99521.66;5159848;27;20464;-56
2023/05/05 04:19:13;;;;;;;1.92;1.20;;;;;;;6.01;100.00;99506.13;5159649;27;20059;-56
2023/05/05 04:21:39;;;;;;;4.50;1.60;;;;;;;6.02;100.00;99562.13;5159733;27;20146;-58
2023/05/05 04:24:05;;;;;;;3.13;1.50;;;;;;;5.87;100.00;99569.66;5159462;27;20138;-57
2023/05/05 04:26:31;;;;;;;3.13;1.60;;;;;;;6.01;100.00;99648.44;5159700;27;20107;-64
2023/05/05 04:28:57;;;;;;;2.60;1.70;;;;;;;5.78;100.00;99693.22;5159456;27;20145;-63
2023/05/05 04:31:23;;;;;;;3.22;1.35;;;;;;;5.64;100.00;99764.91;5159673;27;20071;-59
2023/05/05 04:33:49;;;;;;;3.13;1.92;;;;;;;5.57;100.00;99816.25;5159270;27;20062;-60
2023/05/05 04:36:17;;;;;;;1.77;1.33;;;;;;;5.82;100.00;99814.72;5159570;27;20055;-59
2023/05/05 04:38:44;;;;;;;2.97;1.58;;;;;;;5.99;100.00;99813.97;5159078;27;20050;-60
2023/05/05 04:41:10;;;;;;;1.52;1.20;;;;;;;5.96;100.00;99841.81;5159249;27;21079;-64
2023/05/05 04:43:36;;;;;;;2.83;1.67;;;;;;;6.00;100.00;99886.34;5158771;27;20046;-58
2023/05/05 04:46:02;;;;;;;1.88;1.40;;;;;;;6.19;100.00;99942.44;5158982;27;20141;-58
2023/05/05 04:48:28;;;;;;;2.03;1.17;;;;;;;6.13;100.00;99971.72;5159115;27;20426;-61
2023/05/05 04:50:55;;;;;;;2.30;1.27;;;;;;;6.20;100.00;99979.41;5158832;27;20137;-61
2023/05/05 04:53:21;;;;;;;1.42;1.20;;;;;;;6.05;100.00;99910.69;5159055;27;20047;-58
2023/05/05 04:55:47;;;;;;;1.20;1.10;;;;;;;5.66;100.00;99923.19;5158834;27;20055;-62
2023/05/05 04:58:13;;;;;;;2.95;1.50;;;;;;;5.76;100.00;99981.13;5158870;27;20047;-60
2023/05/05 05:00:39;;;;;;;1.88;1.20;;;;;;;5.45;100.00;99905.00;5158742;27;20054;-59
2023/05/05 05:03:05;;;;;;;1.20;1.10;;;;;;;5.74;100.00;99888.97;5159136;27;20054;-56
2023/05/05 05:05:31;;;;;;;1.20;1.10;;;;;;;5.78;100.00;99796.63;5158415;27;20464;-62
2023/05/05 05:07:57;;;;;;;1.50;1.30;;;;;;;5.99;100.00;99784.03;5158994;27;20092;-62
2023/05/05 05:10:23;;;;;;;1.67;1.38;;;;;;;5.75;100.00;99743.63;5158451;27;20145;-60
2023/05/05 05:12:49;;;;;;;1.25;1.10;;;;;;;5.72;100.00;99766.03;5158533;27;20074;-61
2023/05/05 05:15:15;;;;;;;2.63;1.45;;;;;;;5.47;100.00;99846.47;5158804;27;20387;-64
2023/05/05 05:17:41;;;;;;;1.50;1.33;;;;;;;5.65;100.00;99973.25;5158480;27;20097;-64
2023/05/05 05:20:07;;;;;;;1.75;1.25;;;;;;;5.97;100.00;100006.75;5158731;27;20050;-63
2023/05/05 05:22:37;;;;;;;4.07;1.58;;;;;;;5.75;100.00;99922.41;5158435;27;20089;-58
2023/05/05 05:25:04;;;;;;;1.73;1.48;;;;;;;5.40;100.00;99988.31;5158537;27;20047;-62
2023/05/05 05:27:30;;;;;;;2.45;1.60;;;;;;;5.64;100.00;99968.94;5158331;27;20050;-54
2023/05/05 05:29:56;;;;;;;4.00;1.63;;;;;;;5.70;100.00;100026.75;5158402;27;20046;-56
2023/05/05 05:32:22;;;;;;;2.97;1.50;;;;;;;5.60;100.00;100081.41;5158182;27;20074;-61
2023/05/05 05:34:48;;;;;;;2.90;1.42;;;;;;;5.57;100.00;100169.06;5158570;27;20385;-61
2023/05/05 05:37:14;;;;;;;1.77;1.33;;;;;;;5.42;100.00;100222.66;5157962;27;20486;-63
2023/05/05 05:39:40;;;;;;;2.45;1.30;;;;;;;5.40;100.00;100243.13;5158114;27;20137;-63
2023/05/05 05:42:06;;;;;;;5.18;1.55;;;;;;;5.16;100.00;100260.47;5158116;27;20055;-63
2023/05/05 05:44:32;;;;;;;4.07;1.88;;;;;;;5.10;100.00;100255.44;5157954;27;20064;-64
2023/05/05 05:46:58;;;;;;;2.63;1.48;;;;;;;5.54;100.00;100282.00;5158427;27;20145;-69
2023/05/05 05:49:24;;;;;;;3.40;1.65;;;;;;;5.59;100.00;100270.19;5157859;27;20081;-66
2023/05/05 05:51:50;;;;;;;2.78;1.15;;;;;;;5.11;100.00;100199.94;5158160;27;20137;-65
2023/05/05 05:54:16;;;;;;;1.40;1.27;;;;;;;4.95;100.00;100173.06;5157249;27;20043;-56
2023/05/05 05:56:41;;;;;;;1.92;1.38;;;;;;;5.21;100.00;100160.88;5158446;27;20043;-58
2023/05/05 05:59:09;;;;;;;1.40;1.30;;;;;;;5.05;100.00;100127.78;5157886;27;20062;-57
2023/05/05 06:01:35;;;;;;;3.22;1.40;;;;;;;4.97;100.00;100133.94;5158268;27;20043;-66
2023/05/05 06:04:00;;;;;;;1.65;1.52;;;;;;;4.88;100.00;100166.44;5157825;27;20054;-62
2023/05/05 06:06:26;;;;;;;4.47;1.60;;;;;;;4.98;100.00;100187.97;5158004;27;20073;-59
2023/05/05 06:08:52;;;;;;;1.45;1.30;;;;;;;5.26;100.00;100194.19;5157898;27;20066;-57
2023/05/05 06:11:18;;;;;;;1.80;1.45;;;;;;;5.26;100.00;100207.78;5157892;27;20350;-59
2023/05/05 06:13:44;;;;;;;3.30;1.40;;;;;;;5.00;100.00;100204.78;5157706;27;20129;-59
2023/05/05 06:16:11;;;;;;;1.60;1.23;;;;;;;5.48;100.00;100236.16;5157452;27;20171;-60
2023/05/05 06:18:37;;;;;;;5.55;1.92;;;;;;;5.15;100.00;100247.16;5157563;27;20462;-67
2023/05/05 06:21:03;;;;;;;5.03;1.75;;;;;;;5.60;100.00;100299.81;5157627;27;20082;-69
2023/05/05 06:23:29;;;;;;;2.15;1.95;;;;;;;5.52;100.00;100349.47;5157689;27;20046;-58
2023/05/05 06:25:55;;;;;;;4.07;2.38;;;;;;;5.25;100.00;100335.88;5157196;27;20054;-56
2023/05/05 06:28:21;;;;;;;4.55;2.10;;;;;;;5.84;100.00;100332.25;5157602;27;20053;-56
2023/05/05 06:30:46;;;;;;;1.73;1.60;;;;;;;6.03;100.00;100312.25;5157043;27;20431;-58
2023/05/05 06:33:13;;;;;;;3.15;2.20;;;;;;;6.11;100.00;100311.56;5157854;27;20061;-59
2023/05/05 06:35:39;;;;;;;4.90;1.80;;;;;;;6.10;100.00;100290.88;5157027;27;20369;-61
2023/05/05 06:38:05;;;;;;;2.50;1.70;;;;;;;6.03;100.00;100285.88;5157244;27;20046;-64
2023/05/05 06:40:31;;;;;;;3.90;2.47;;;;;;;5.93;100.00;100261.59;5157289;27;20434;-64
2023/05/05 06:42:57;;;;;;;2.28;2.00;;;;;;;5.74;100.00;100279.97;5157017;27;20100;-62
2023/05/05 06:45:23;;;;;;;3.05;2.03;;;;;;;5.92;100.00;100237.38;5156998;27;20050;-57
2023/05/05 06:47:49;;;;;;;2.45;1.88;;;;;;;5.91;100.00;100198.47;5157163;27;20074;-55
2023/05/05 06:50:15;;;;;;;2.63;2.03;;;;;;;5.93;100.00;100217.22;5157291;27;20441;-57
2023/05/05 06:52:41;;;;;;;4.72;3.83;;;;;;;6.04;100.00;100259.44;5157201;27;20110;-60
2023/05/05 06:55:08;;;;;;;4.35;2.80;;;;;;;6.03;100.00;100238.75;5158865;27;20050;-57
2023/05/05 06:57:34;;;;;;;2.60;2.30;;;;;;;5.91;100.00;100222.97;5159543;27;20047;-61
2023/05/05 07:00:02;;;;;;;7.63;2.03;;;;;;;5.43;100.00;100193.53;5157371;27;20051;-52
2023/05/05 07:02:28;;;;;;;3.60;2.60;;;;;;;5.85;100.00;100243.22;5156742;27;20102;-58
2023/05/05 07:04:54;;;;;;;6.45;2.63;;;;;;;6.03;100.00;100268.72;5157226;27;20055;-60
2023/05/05 07:07:21;;;;;;;3.33;2.35;;;;;;;6.01;100.00;100271.75;5160622;27;20047;-62
2023/05/05 07:09:46;;;;;;;4.82;2.40;;;;;;;6.27;100.00;100252.09;5160522;27;20141;-62
2023/05/05 07:12:12;;;;;;;4.45;2.35;;;;;;;6.41;100.00;100236.50;5160563;27;20063;-61
2023/05/05 07:14:38;;;;;;;3.60;2.60;;;;;;;6.50;100.00;100234.63;5160303;27;20404;-61
2023/05/05 07:17:04;;;;;;;6.00;3.63;;;;;;;6.35;100.00;100196.88;5160553;27;20176;-58
2023/05/05 07:19:30;;;;;;;2.05;1.85;;;;;;;6.62;100.00;100197.81;5159989;27;20383;-58
2023/05/05 07:21:56;;;;;;;3.45;2.30;;;;;;;6.60;100.00;100111.75;5160312;27;20095;-55
2023/05/05 07:24:23;;;;;;;4.07;2.40;;;;;;;6.43;100.00;100023.72;5159972;27;20058;-56
2023/05/05 07:26:49;;;;;;;3.90;2.00;;;;;;;6.71;100.00;100008.72;5160495;27;20483;-53
2023/05/05 07:29:15;;;;;;;3.83;2.42;;;;;;;6.77;100.00;99963.06;5160152;27;20046;-62
2023/05/05 07:31:41;;;;;;;3.15;2.45;;;;;;;6.82;100.00;99990.13;5160334;27;20047;-63
2023/05/05 07:34:07;;;;;;;3.00;2.30;;;;;;;6.79;100.00;99938.97;5159688;27;20203;-61
2023/05/05 07:36:33;;;;;;;12.35;2.70;;;;;;;6.85;100.00;99984.03;5159714;27;20051;-60
2023/05/05 07:38:59;;;;;;;6.97;3.10;;;;;;;6.91;100.00;99979.25;5160196;27;20111;-54
2023/05/05 07:41:26;;;;;;;7.53;2.75;;;;;;;6.75;100.00;99974.25;5160006;27;20050;-56
2023/05/05 07:43:52;;;;;;;3.85;2.45;;;;;;;6.59;100.00;99943.13;5159976;27;20258;-54
2023/05/05 07:46:17;;;;;;;7.18;2.63;;;;;;;6.79;100.00;99956.13;5159704;27;20088;-57
2023/05/05 07:48:43;;;;;;;5.78;3.53;;;;;;;6.88;100.00;100005.22;5160117;27;20051;-57
2023/05/05 07:51:10;;;;;;;5.03;3.33;;;;;;;6.88;100.00;99986.13;5159702;27;20047;-62
2023/05/05 07:53:36;;;;;;;6.97;3.20;;;;;;;6.83;100.00;99951.66;5160060;27;20047;-57
2023/05/05 07:56:02;;;;;;;5.35;3.10;;;;;;;6.73;100.00;99962.88;5159675;27;20137;-58
2023/05/05 07:58:29;;;;;;;7.35;3.63;;;;;;;6.69;100.00;100030.03;5159915;27;20412;-56
2023/05/05 08:00:54;;;;;;;3.97;3.15;;;;;;;6.69;100.00;100094.63;5159428;27;20050;-61
2023/05/05 08:03:23;;;;;;;10.02;3.20;;;;;;;6.59;100.00;100072.00;5160033;27;20103;-57
2023/05/05 08:05:49;;;;;;;6.20;3.95;;;;;;;6.62;100.00;100100.53;5159439;27;20053;-58
2023/05/05 08:08:15;;;;;;;5.68;3.75;;;;;;;6.67;100.00;100115.94;5159633;27;20050;-55
2023/05/05 08:10:40;;;;;;;4.40;3.20;;;;;;;6.68;100.00;100096.56;5159667;27;20493;-57
2023/05/05 08:13:06;;;;;;;5.47;2.80;;;;;;;6.85;100.00;100046.72;5159103;27;20467;-57
2023/05/05 08:15:33;;;;;;;9.00;3.15;;;;;;;6.80;100.00;99963.22;5159873;27;20058;-55
2023/05/05 08:17:59;;;;;;;5.50;3.55;;;;;;;7.06;100.00;99955.03;5158513;27;20060;-54
2023/05/05 08:20:28;;;;;;;4.90;3.25;;;;;;;7.33;100.00;99994.00;5159490;27;20107;-58
2023/05/05 08:22:54;;;;;;;3.75;3.13;;;;;;;7.62;100.00;99952.34;5159257;27;20046;-57
2023/05/05 08:25:20;;;;;;;4.32;2.72;;;;;;;7.18;100.00;99766.22;5159542;27;20104;-55
2023/05/05 08:27:45;;;;;;;5.40;2.78;;;;;;;7.27;100.00;99717.88;5159372;27;20054;-59
2023/05/05 08:30:12;;;;;;;4.40;3.15;;;;;;;7.56;100.00;99628.94;5159486;27;20063;-60
2023/05/05 08:32:39;;;;;;;6.20;3.08;;;;;;;7.37;100.00;99563.97;5158940;27;20054;-55
2023/05/05 08:35:05;;;;;;;3.10;2.80;;;;;;;7.37;100.00;99403.03;5159055;27;20115;-53
2023/05/05 08:37:31;;;;;;;2.53;2.33;;;;;;;7.58;100.00;99304.75;5159170;27;20137;-59
2023/05/05 08:39:58;;;;;;;4.03;2.72;;;;;;;7.79;100.00;99332.69;5158957;27;20058;-62
2023/05/05 08:42:23;;;;;;;3.15;2.47;;;;;;;8.18;100.00;99259.38;5159318;27;20050;-60
2023/05/05 08:44:50;;;;;;;4.55;2.42;;;;;;;8.17;100.00;99140.38;5158892;27;20055;-55
2023/05/05 08:47:16;;;;;;;3.78;2.50;;;;;;;8.30;100.00;99184.81;5159170;27;20141;-62
2023/05/05 08:49:45;;;;;;;3.00;2.25;;;;;;;9.12;100.00;99087.66;5159174;27;20364;-60
2023/05/05 08:52:13;;;;;;;3.10;2.00;;;;;;;9.18;100.00;99058.88;5159151;27;20047;-57
2023/05/05 08:54:45;;;;;;;4.70;2.20;;;;;;;8.44;100.00;99056.81;5158934;27;20137;-63
2023/05/05 08:57:16;;;;;;;2.10;1.90;;;;;;;9.24;100.00;99037.53;5159052;27;20046;-53
2023/05/05 08:59:43;;;;;;;1.80;1.70;;;;;;;8.93;100.00;99045.47;5158734;27;20345;-56
2023/05/05 09:02:10;;;;;;;5.68;2.22;;;;;;;9.27;100.00;99018.44;5158457;27;20427;-55
2023/05/05 09:04:37;;;;;;;2.13;1.80;;;;;;;8.79;100.00;99050.59;5158644;27;20385;-58
2023/05/05 09:07:03;;;;;;;2.20;2.00;;;;;;;9.39;100.00;99048.38;5158492;27;20141;-62
2023/05/05 09:09:29;;;;;;;1.98;1.88;;;;;;;9.83;100.00;99094.63;5158913;27;20054;-64
2023/05/05 09:11:58;;;;;;;2.03;1.83;;;;;;;9.63;100.00;99161.50;5158318;27;20446;-60
2023/05/05 09:14:24;;;;;;;1.92;1.70;;;;;;;8.82;100.00;99134.63;5158578;27;20145;-63
2023/05/05 09:16:50;;;;;;;2.00;1.90;;;;;;;9.44;100.00;99110.25;5158350;27;20070;-59
2023/05/05 09:19:16;;;;;;;2.40;2.20;;;;;;;9.18;100.00;99111.63;5158601;27;20400;-58
2023/05/05 09:21:47;;;;;;;2.05;1.85;;;;;;;8.85;100.00;99109.31;5158189;27;20062;-54
2023/05/05 09:24:14;;;;;;;2.17;1.98;;;;;;;8.95;100.00;99097.03;5158723;27;20140;-63
2023/05/05 09:26:42;;;;;;;2.50;2.30;;;;;;;8.41;100.00;99105.91;5158124;27;20050;-60
2023/05/05 09:29:08;;;;;;;2.10;2.00;;;;;;;8.94;100.00;99106.41;5157976;27;20494;-62
2023/05/05 09:31:35;;;;;;;2.88;2.35;;;;;;;9.94;100.00;99094.06;5158515;27;20061;-60
2023/05/05 09:34:13;;;;;;;2.33;2.13;;;;;;;9.72;100.00;99211.31;5158068;27;20456;-63
2023/05/05 09:36:46;;;;;;;1.88;1.77;;;;;;;10.63;100.00;99229.25;5158689;27;20054;-58
2023/05/05 09:39:14;;;;;;;2.15;1.80;;;;;;;10.20;100.00;99343.47;5158041;27;20054;-53
2023/05/05 09:41:42;;;;;;;2.15;1.55;;;;;;;10.16;100.00;99342.56;5158146;27;20057;-61
2023/05/05 09:44:08;;;;;;;3.00;2.25;;;;;;;10.24;100.00;99324.34;5158099;27;20074;-58
2023/05/05 09:46:34;;;;;;;3.70;2.38;;;;;;;10.05;100.00;99322.38;5158236;27;20141;-61
2023/05/05 09:49:17;;;;;;;2.83;2.50;;;;;;;10.01;100.00;99307.81;5157824;27;20085;-60
2023/05/05 09:51:43;;;;;;;5.85;2.60;;;;;;;10.99;100.00;99266.31;5158024;27;20046;-57
2023/05/05 09:54:22;;;;;;;5.88;2.22;;;;;;;10.83;100.00;99356.16;5158149;27;20145;-62
2023/05/05 09:56:48;;;;;;;2.42;2.22;;;;;;;10.91;100.00;99362.56;5157790;27;20398;-61
2023/05/05 09:59:14;;;;;;;2.38;2.17;;;;;;;10.58;100.00;99364.66;5158178;27;20050;-62
2023/05/05 10:01:42;;;;;;;2.40;2.20;;;;;;;9.66;100.00;99338.66;5157906;27;20372;-57
2023/05/05 10:04:22;;;;;;;4.00;2.45;;;;;;;11.01;100.00;99301.63;5158162;27;20050;-59
2023/05/05 10:06:48;;;;;;;3.08;2.28;;;;;;;10.55;100.00;99408.44;5157577;27;20073;-54
2023/05/05 10:09:14;;;;;;;2.65;2.20;;;;;;;10.97;100.00;99416.78;5158028;27;20374;-52
2023/05/05 10:11:41;;;;;;;2.63;1.95;;;;;;;10.77;100.00;99494.72;5157322;27;20046;-58
2023/05/05 10:14:08;;;;;;;2.17;1.98;;;;;;;10.70;100.00;99495.34;5157054;27;20053;-56
2023/05/05 10:16:35;;;;;;;2.42;1.95;;;;;;;10.81;100.00;99490.09;5157797;27;20091;-58
2023/05/05 10:19:03;;;;;;;3.45;1.70;;;;;;;10.31;100.00;99475.25;5157869;27;20042;-55
2023/05/05 10:21:33;;;;;;;2.85;2.03;;;;;;;10.39;100.00;99495.41;5160008;27;20047;-53
2023/05/05 10:24:06;;;;;;;3.15;2.03;;;;;;;9.64;100.00;99395.72;5160970;27;20227;-56
2023/05/05 10:26:33;;;;;;;7.95;2.40;;;;;;;9.24;100.00;99163.34;5157783;27;20114;-56
2023/05/05 10:29:06;;;;;;;8.75;2.88;;;;;;;7.95;100.00;99067.22;5157382;27;20070;-54
2023/05/05 10:31:40;;;;;;;5.45;3.05;;;;;;;6.99;100.00;99112.41;5157933;27;20078;-56
2023/05/05 10:34:09;;;;;;;12.05;3.15;;;;;;;6.24;100.00;99253.47;5157217;27;20064;-54
2023/05/05 10:36:37;;;;;;;6.13;3.33;;;;;;;5.80;100.00;99558.47;5157573;27;20054;-58
2023/05/05 10:39:05;;;;;;;6.97;3.97;;;;;;;5.95;100.00;99862.00;5157424;27;20043;-52
2023/05/05 10:41:32;;;;;;;4.60;3.47;;;;;;;5.31;100.00;100032.88;5160027;27;20092;-56
2023/05/05 10:44:00;;;;;;;4.22;3.40;;;;;;;5.85;100.00;100110.69;5160821;27;20142;-55
2023/05/05 10:46:27;;;;;;;5.30;4.00;;;;;;;5.78;100.00;100137.53;5160725;27;20142;-58
2023/05/05 10:48:58;;;;;;;7.40;5.57;;;;;;;5.89;100.00;100318.50;5161205;27;20046;-55
2023/05/05 10:51:43;;;;;;;11.50;5.20;;;;;;;6.17;100.00;100427.41;5160653;27;20047;-53
2023/05/05 10:54:19;;;;;;;5.95;4.38;;;;;;;6.70;100.00;100436.88;5161023;27;20050;-52
2023/05/05 10:56:46;;;;;;;7.80;4.45;;;;;;;7.11;100.00;100427.72;5160482;27;20145;-55
2023/05/05 10:59:41;;;;;;;4.00;3.60;;;;;;;7.60;100.00;100421.28;5161013;27;20328;-55
2023/05/05 11:02:24;;;;;;;4.95;3.33;;;;;;;7.59;100.00;100236.81;5160534;27;20047;-57
2023/05/05 11:05:13;;;;;;;3.10;2.83;;;;;;;7.38;100.00;99969.25;5160263;27;20055;-59
2023/05/05 11:07:40;;;;;;;5.40;3.45;;;;;;;7.86;100.00;99771.59;5160882;27;20324;-58
2023/05/05 11:10:07;;;;;;;4.10;3.22;;;;;;;8.20;100.00;99901.66;5160285;27;20042;-60
2023/05/05 11:13:13;;;;;;;3.25;3.00;;;;;;;8.12;100.00;99726.94;5160851;27;20051;-59
2023/05/05 11:15:40;;;;;;;3.63;3.08;;;;;;;8.20;100.00;99534.88;5160577;27;20115;-61
2023/05/05 11:18:06;;;;;;;4.07;2.63;;;;;;;8.29;100.00;99513.69;5160250;27;20433;-56
2023/05/05 11:21:01;;;;;;;5.47;3.13;;;;;;;8.35;100.00;99321.13;5160647;27;20073;-61
2023/05/05 11:23:28;;;;;;;4.72;2.60;;;;;;;7.92;100.00;99087.81;5160359;27;20129;-59
2023/05/05 11:25:56;;;;;;;3.65;3.10;;;;;;;8.34;100.00;99106.47;5160705;27;20133;-54
2023/05/05 11:28:24;;;;;;;3.60;2.35;;;;;;;8.29;100.00;99056.78;5160113;27;20047;-58
2023/05/05 11:31:18;;;;;;;4.43;2.83;;;;;;;8.29;100.00;99032.19;5159927;27;20046;-56
2023/05/05 11:33:44;;;;;;;3.83;2.35;;;;;;;8.18;100.00;99012.81;5160134;27;20380;-53
2023/05/05 11:36:11;;;;;;;8.07;3.65;;;;;;;8.27;100.00;99076.25;5159924;27;20050;-57